Time;durP1;ratioP1;P1;durP2;ratioP2;P2;SDS_P1;SDS_P2;PMS_P1;PMS_P2;Temp;Humidity;BMP_temperature;BMP_pressure;BME280_temperature;BME280_humidity;BME280_pressure;Samples;Min_cycle;Max_cycle;Signal;HPM_P1;HPM_P2
2023/07/05 00:01:29;;;;;;;15.73;10.70;;;;;;;;;;5095657;28;20036;-78
2023/07/05 00:03:54;;;;;;;17.42;10.40;;;;;;;;;;5094514;28;20252;-79
2023/07/05 00:06:19;;;;;;;19.70;10.67;;;;;;;;;;5094556;28;20024;-78
2023/07/05 00:08:44;;;;;;;19.40;11.43;;;;;;;;;;5095613;28;20280;-78
2023/07/05 00:11:11;;;;;;;15.70;11.07;;;;;;;;;;5097287;28;20027;-79
2023/07/05 00:13:36;;;;;;;20.35;10.65;;;;;;;;;;5098447;28;20028;-79
2023/07/05 00:16:02;;;;;;;18.58;10.93;;;;;;;;;;5100836;28;20360;-80
2023/07/05 00:18:28;;;;;;;16.92;10.57;;;;;;;;;;5099315;28;20028;-79
2023/07/05 00:20:59;;;;;;;17.83;10.98;;;;;;;;;;5099588;28;20028;-79
2023/07/05 00:23:24;;;;;;;17.75;11.13;;;;;;;;;;5099203;28;20024;-79
2023/07/05 00:25:49;;;;;;;18.43;11.03;;;;;;;;;;5098824;28;20103;-79
2023/07/05 00:28:15;;;;;;;15.93;11.03;;;;;;;;;;5099419;28;20292;-78
2023/07/05 00:30:44;;;;;;;15.73;10.20;;;;;;;;;;5098371;28;20249;-78
2023/07/05 00:33:10;;;;;;;16.85;10.50;;;;;;;;;;5099821;28;20032;-79
2023/07/05 00:35:35;;;;;;;16.17;10.30;;;;;;;;;;5098288;28;20020;-79
2023/07/05 00:38:00;;;;;;;16.08;10.65;;;;;;;;;;5097798;28;20257;-78
2023/07/05 00:40:25;;;;;;;18.23;10.93;;;;;;;;;;5098503;28;20482;-79
2023/07/05 00:42:50;;;;;;;16.55;9.90;;;;;;;;;;5099134;28;20627;-78
2023/07/05 00:45:18;;;;;;;16.93;11.03;;;;;;;;;;5099286;28;20031;-79
2023/07/05 00:47:45;;;;;;;17.45;10.35;;;;;;;;;;5099079;28;20261;-80
2023/07/05 00:50:24;;;;;;;17.80;11.30;;;;;;;;;;5099373;28;20091;-80
2023/07/05 00:52:52;;;;;;;19.75;10.88;;;;;;;;;;5098996;28;20028;-78
2023/07/05 00:55:18;;;;;;;16.67;10.75;;;;;;;;;;5097236;28;20020;-78
2023/07/05 00:57:44;;;;;;;17.17;10.73;;;;;;;;;;5096599;28;20027;-79
2023/07/05 01:00:15;;;;;;;17.83;10.95;;;;;;;;;;5098291;28;20492;-78
2023/07/05 01:02:44;;;;;;;16.33;10.52;;;;;;;;;;5095408;28;20027;-78
2023/07/05 01:05:11;;;;;;;22.90;10.82;;;;;;;;;;5097006;28;20024;-78
2023/07/05 01:07:36;;;;;;;17.02;10.20;;;;;;;;;;5096607;28;20074;-78
2023/07/05 01:10:02;;;;;;;16.17;10.77;;;;;;;;;;5097130;28;20016;-78
2023/07/05 01:12:35;;;;;;;18.48;10.23;;;;;;;;;;5097432;28;20093;-78
2023/07/05 01:15:12;;;;;;;23.27;10.98;;;;;;;;;;5097324;28;20071;-78
2023/07/05 01:17:51;;;;;;;15.93;9.93;;;;;;;;;;5096907;28;20483;-78
2023/07/05 01:20:33;;;;;;;16.50;10.13;;;;;;;;;;5096684;28;20044;-78
2023/07/05 01:23:19;;;;;;;16.65;10.05;;;;;;;;;;5095554;28;20028;-78
2023/07/05 01:26:16;;;;;;;17.90;10.88;;;;;;;;;;5096777;28;20035;-78
2023/07/05 01:28:58;;;;;;;17.10;10.63;;;;;;;;;;5095430;28;20119;-78
2023/07/05 01:31:50;;;;;;;23.25;10.73;;;;;;;;;;5094555;28;20495;-78
2023/07/05 01:34:24;;;;;;;18.02;10.63;;;;;;;;;;5095992;28;20024;-78
2023/07/05 01:36:50;;;;;;;;;;;;;;;;;;5098262;28;20154;-79
2023/07/05 01:39:15;;;;;;;17.00;10.88;;;;;;;;;;5096167;28;19947;-79
2023/07/05 01:41:40;;;;;;;16.40;10.63;;;;;;;;;;5097197;28;20073;-79
2023/07/05 01:44:07;;;;;;;19.27;11.27;;;;;;;;;;5096542;28;20306;-79
2023/07/05 01:47:02;;;;;;;17.60;10.80;;;;;;;;;;5097533;28;20259;-79
2023/07/05 01:49:46;;;;;;;16.55;10.75;;;;;;;;;;5097165;28;20106;-79
2023/07/05 01:52:34;;;;;;;16.58;10.75;;;;;;;;;;5095430;28;20046;-79
2023/07/05 01:55:08;;;;;;;18.15;11.25;;;;;;;;;;5097580;28;20028;-79
2023/07/05 01:58:00;;;;;;;15.65;10.00;;;;;;;;;;5096423;28;20032;-80
2023/07/05 02:00:27;;;;;;;18.83;10.75;;;;;;;;;;5097663;28;20114;-79
2023/07/05 02:03:01;;;;;;;17.48;10.85;;;;;;;;;;5097247;28;20070;-79
2023/07/05 02:05:28;;;;;;;16.45;10.75;;;;;;;;;;5096989;28;20024;-79
2023/07/05 02:07:54;;;;;;;19.05;10.32;;;;;;;;;;5095520;28;20036;-79
2023/07/05 02:10:21;;;;;;;15.60;10.63;;;;;;;;;;5097212;28;20364;-79
2023/07/05 02:12:46;;;;;;;15.60;10.60;;;;;;;;;;5096309;28;20020;-79
2023/07/05 02:15:12;;;;;;;20.02;11.30;;;;;;;;;;5097081;28;20107;-79
2023/07/05 02:17:37;;;;;;;17.67;10.85;;;;;;;;;;5097040;28;20050;-79
2023/07/05 02:20:03;;;;;;;19.63;11.33;;;;;;;;;;5096773;28;20032;-79
2023/07/05 02:22:29;;;;;;;18.27;10.45;;;;;;;;;;5097035;28;20366;-79
2023/07/05 02:24:55;;;;;;;17.65;11.25;;;;;;;;;;5096052;28;20506;-79
2023/07/05 02:27:21;;;;;;;18.55;11.13;;;;;;;;;;5096972;28;20039;-79
2023/07/05 02:29:47;;;;;;;16.48;11.00;;;;;;;;;;5095381;28;20020;-79
2023/07/05 02:32:12;;;;;;;20.55;10.57;;;;;;;;;;5095032;28;20402;-79
2023/07/05 02:34:42;;;;;;;18.30;11.25;;;;;;;;;;5097065;28;20031;-79
2023/07/05 02:37:08;;;;;;;17.00;10.95;;;;;;;;;;5095194;28;20039;-79
2023/07/05 02:39:34;;;;;;;18.23;11.05;;;;;;;;;;5094885;28;20535;-79
2023/07/05 02:41:59;;;;;;;18.38;10.48;;;;;;;;;;5096832;28;20056;-79
2023/07/05 02:44:24;;;;;;;18.83;11.13;;;;;;;;;;5097239;28;20027;-79
2023/07/05 02:46:49;;;;;;;17.42;10.95;;;;;;;;;;5095071;28;20028;-79
2023/07/05 02:49:15;;;;;;;18.73;11.00;;;;;;;;;;5095571;28;20016;-78
2023/07/05 02:51:41;;;;;;;18.48;10.68;;;;;;;;;;5094323;28;20248;-79
2023/07/05 02:54:07;;;;;;;19.05;11.38;;;;;;;;;;5095432;28;20024;-79
2023/07/05 02:56:32;;;;;;;19.88;10.20;;;;;;;;;;5095983;28;20393;-79
2023/07/05 02:58:58;;;;;;;17.53;11.57;;;;;;;;;;5095629;28;20028;-79
2023/07/05 03:01:23;;;;;;;19.95;11.02;;;;;;;;;;5094535;28;20259;-79
2023/07/05 03:03:48;;;;;;;16.45;10.40;;;;;;;;;;5095135;28;20077;-79
2023/07/05 03:06:13;;;;;;;16.77;10.73;;;;;;;;;;5096582;28;20099;-79
2023/07/05 03:08:39;;;;;;;15.23;10.13;;;;;;;;;;5095850;28;20284;-78
2023/07/05 03:11:04;;;;;;;18.98;10.35;;;;;;;;;;5095931;28;20269;-78
2023/07/05 03:13:32;;;;;;;18.57;11.10;;;;;;;;;;5095004;28;20071;-78
2023/07/05 03:15:58;;;;;;;20.67;11.13;;;;;;;;;;5094841;28;20292;-78
2023/07/05 03:18:25;;;;;;;17.77;10.98;;;;;;;;;;5094498;28;20031;-79
2023/07/05 03:20:51;;;;;;;20.70;11.40;;;;;;;;;;5095396;28;20024;-79
2023/07/05 03:23:16;;;;;;;19.38;11.35;;;;;;;;;;5094735;28;20032;-79
2023/07/05 03:25:56;;;;;;;18.05;11.82;;;;;;;;;;5096217;28;20032;-79
2023/07/05 03:28:22;;;;;;;22.33;10.68;;;;;;;;;;5096158;28;20024;-79
2023/07/05 03:30:58;;;;;;;19.95;11.23;;;;;;;;;;5096104;28;20030;-79
2023/07/05 03:33:24;;;;;;;18.55;10.48;;;;;;;;;;5096082;28;20538;-78
2023/07/05 03:36:18;;;;;;;18.95;10.82;;;;;;;;;;5094794;28;20050;-79
2023/07/05 03:38:43;;;;;;;16.88;10.63;;;;;;;;;;5092697;28;20062;-80
2023/07/05 03:41:12;;;;;;;19.48;11.32;;;;;;;;;;5094361;28;20028;-79
2023/07/05 03:43:38;;;;;;;17.10;10.77;;;;;;;;;;5095546;28;20031;-79
2023/07/05 03:46:05;;;;;;;17.55;10.75;;;;;;;;;;5100108;28;20085;-79
2023/07/05 03:48:35;;;;;;;17.48;10.35;;;;;;;;;;5099573;28;20016;-79
2023/07/05 03:51:01;;;;;;;17.23;10.25;;;;;;;;;;5098744;28;20111;-79
2023/07/05 03:53:27;;;;;;;16.75;10.15;;;;;;;;;;5099548;28;20060;-79
2023/07/05 03:55:53;;;;;;;19.73;10.68;;;;;;;;;;5100113;28;20028;-79
2023/07/05 03:58:19;;;;;;;18.15;11.32;;;;;;;;;;5099049;28;20032;-78
2023/07/05 04:00:45;;;;;;;18.77;10.55;;;;;;;;;;5099465;28;20028;-79
2023/07/05 04:03:11;;;;;;;22.05;10.45;;;;;;;;;;5098945;28;20417;-79
2023/07/05 04:05:36;;;;;;;15.73;10.15;;;;;;;;;;5099642;28;20032;-79
2023/07/05 04:08:02;;;;;;;20.77;10.70;;;;;;;;;;5099809;28;20035;-78
2023/07/05 04:10:27;;;;;;;16.67;10.63;;;;;;;;;;5099458;28;20020;-79
2023/07/05 04:12:52;;;;;;;17.27;10.85;;;;;;;;;;5097993;28;20107;-79
2023/07/05 04:15:18;;;;;;;16.98;10.52;;;;;;;;;;5099747;28;20024;-79
2023/07/05 04:17:44;;;;;;;18.55;10.93;;;;;;;;;;5099668;28;20024;-78
2023/07/05 04:20:09;;;;;;;17.98;10.35;;;;;;;;;;5102267;28;20036;-78
2023/07/05 04:22:35;;;;;;;20.73;10.57;;;;;;;;;;5102090;28;20099;-79
2023/07/05 04:25:01;;;;;;;19.25;10.77;;;;;;;;;;5102324;28;20024;-78
2023/07/05 04:27:27;;;;;;;18.08;10.68;;;;;;;;;;5100357;28;20118;-79
2023/07/05 04:29:52;;;;;;;17.95;10.80;;;;;;;;;;5099820;28;20020;-78
2023/07/05 04:32:17;;;;;;;17.63;10.53;;;;;;;;;;5099500;28;20109;-79
2023/07/05 04:34:42;;;;;;;18.33;10.20;;;;;;;;;;5100116;28;20277;-78
2023/07/05 04:37:08;;;;;;;27.07;10.67;;;;;;;;;;5099494;28;20257;-77
2023/07/05 04:39:33;;;;;;;17.10;10.70;;;;;;;;;;5101185;28;20292;-78
2023/07/05 04:41:58;;;;;;;17.75;10.43;;;;;;;;;;5099587;28;20338;-78
2023/07/05 04:44:23;;;;;;;16.13;10.87;;;;;;;;;;5099419;28;20024;-78
2023/07/05 04:46:49;;;;;;;19.27;10.83;;;;;;;;;;5101028;28;20267;-78
2023/07/05 04:49:14;;;;;;;16.33;10.80;;;;;;;;;;5099912;28;20336;-78
2023/07/05 04:51:39;;;;;;;17.23;10.63;;;;;;;;;;5097939;28;20252;-77
2023/07/05 04:54:04;;;;;;;16.50;10.50;;;;;;;;;;5097610;28;20249;-78
2023/07/05 04:56:30;;;;;;;15.70;10.15;;;;;;;;;;5098854;28;20278;-77
2023/07/05 04:58:56;;;;;;;21.25;10.38;;;;;;;;;;5096031;28;20024;-77
2023/07/05 05:01:22;;;;;;;17.25;10.35;;;;;;;;;;5096815;28;20111;-77
2023/07/05 05:03:47;;;;;;;24.63;10.95;;;;;;;;;;5096075;28;20090;-77
2023/07/05 05:06:13;;;;;;;18.85;10.63;;;;;;;;;;5096664;28;20066;-78
2023/07/05 05:08:38;;;;;;;18.30;11.07;;;;;;;;;;5097078;28;20051;-77
2023/07/05 05:11:05;;;;;;;17.20;10.38;;;;;;;;;;5097287;28;20261;-80
2023/07/05 05:13:34;;;;;;;17.33;10.45;;;;;;;;;;5098391;28;20020;-79
2023/07/05 05:16:00;;;;;;;20.75;11.00;;;;;;;;;;5097628;28;20024;-79
2023/07/05 05:18:29;;;;;;;18.65;11.00;;;;;;;;;;5096498;28;20049;-79
2023/07/05 05:20:54;;;;;;;16.95;10.35;;;;;;;;;;5096575;28;20031;-78
2023/07/05 05:23:19;;;;;;;18.03;10.53;;;;;;;;;;5095433;28;20028;-78
2023/07/05 05:25:46;;;;;;;21.08;10.20;;;;;;;;;;5097792;28;20306;-79
2023/07/05 05:28:12;;;;;;;18.35;10.63;;;;;;;;;;5099383;28;20088;-80
2023/07/05 05:30:38;;;;;;;16.38;9.77;;;;;;;;;;5098989;28;20023;-79
2023/07/05 05:33:03;;;;;;;20.70;9.82;;;;;;;;;;5097406;28;20107;-80
2023/07/05 05:35:30;;;;;;;17.88;9.98;;;;;;;;;;5099382;28;20028;-81
2023/07/05 05:37:55;;;;;;;17.58;9.57;;;;;;;;;;5098464;28;20505;-78
2023/07/05 05:40:20;;;;;;;17.43;10.10;;;;;;;;;;5098128;28;20016;-79
2023/07/05 05:42:46;;;;;;;21.63;10.53;;;;;;;;;;5097152;28;20369;-79
2023/07/05 05:45:11;;;;;;;16.92;10.00;;;;;;;;;;5098036;28;20249;-79
2023/07/05 05:47:36;;;;;;;16.58;10.32;;;;;;;;;;5098744;28;20034;-79
2023/07/05 05:50:02;;;;;;;15.18;10.02;;;;;;;;;;5098625;28;20082;-79
2023/07/05 05:52:27;;;;;;;20.30;10.00;;;;;;;;;;5098080;28;20077;-78
2023/07/05 05:54:52;;;;;;;17.42;10.90;;;;;;;;;;5098613;28;20024;-78
2023/07/05 05:57:18;;;;;;;23.43;10.33;;;;;;;;;;5098162;28;20102;-78
2023/07/05 05:59:43;;;;;;;23.57;10.27;;;;;;;;;;5099057;28;20365;-78
2023/07/05 06:02:09;;;;;;;15.15;10.15;;;;;;;;;;5098803;28;20272;-80
2023/07/05 06:04:34;;;;;;;19.25;10.07;;;;;;;;;;5098216;28;20114;-78
2023/07/05 06:06:59;;;;;;;16.07;9.90;;;;;;;;;;5099973;28;20028;-78
2023/07/05 06:09:25;;;;;;;16.77;9.70;;;;;;;;;;5098444;28;20307;-78
2023/07/05 06:11:50;;;;;;;17.73;9.60;;;;;;;;;;5098892;28;20739;-78
2023/07/05 06:14:15;;;;;;;16.05;9.32;;;;;;;;;;5099977;28;20727;-78
2023/07/05 06:16:41;;;;;;;20.27;9.98;;;;;;;;;;5099612;28;20028;-78
2023/07/05 06:19:06;;;;;;;16.80;9.50;;;;;;;;;;5098773;28;20016;-78
2023/07/05 06:21:31;;;;;;;15.85;9.52;;;;;;;;;;5098460;28;20317;-78
2023/07/05 06:23:57;;;;;;;18.07;10.10;;;;;;;;;;5098535;28;20080;-79
2023/07/05 06:26:23;;;;;;;22.53;9.40;;;;;;;;;;5097770;28;20639;-78
2023/07/05 06:28:48;;;;;;;16.40;10.15;;;;;;;;;;5096268;28;20248;-78
2023/07/05 06:31:15;;;;;;;17.37;9.77;;;;;;;;;;5096666;28;20078;-77
2023/07/05 06:33:41;;;;;;;16.83;9.70;;;;;;;;;;5097377;28;20256;-78
2023/07/05 06:36:07;;;;;;;18.75;9.07;;;;;;;;;;5096651;28;20030;-78
2023/07/05 06:38:33;;;;;;;15.77;9.50;;;;;;;;;;5095552;28;20499;-78
2023/07/05 06:40:58;;;;;;;16.95;9.75;;;;;;;;;;5097116;28;20122;-78
2023/07/05 06:43:24;;;;;;;16.27;9.63;;;;;;;;;;5100076;28;20026;-78
2023/07/05 06:45:52;;;;;;;21.25;11.02;;;;;;;;;;5097874;28;20389;-78
2023/07/05 06:48:17;;;;;;;20.95;10.57;;;;;;;;;;5098623;28;20051;-78
2023/07/05 06:50:42;;;;;;;20.20;10.02;;;;;;;;;;5097698;28;20360;-79
2023/07/05 06:53:09;;;;;;;17.48;9.93;;;;;;;;;;5099746;28;20110;-80
2023/07/05 06:55:38;;;;;;;18.02;9.95;;;;;;;;;;5099528;28;20056;-81
2023/07/05 06:58:03;;;;;;;16.85;9.90;;;;;;;;;;5097741;28;20030;-80
2023/07/05 07:00:28;;;;;;;19.73;10.30;;;;;;;;;;5098577;28;20024;-79
2023/07/05 07:02:54;;;;;;;18.00;10.30;;;;;;;;;;5098838;28;20295;-80
2023/07/05 07:05:19;;;;;;;16.50;9.10;;;;;;;;;;5102706;28;20268;-80
2023/07/05 07:07:44;;;;;;;16.47;9.63;;;;;;;;;;5102576;28;20275;-79
2023/07/05 07:10:09;;;;;;;22.03;10.07;;;;;;;;;;5102462;28;20257;-79
2023/07/05 07:12:34;;;;;;;18.67;9.53;;;;;;;;;;5105950;28;20291;-81
2023/07/05 07:15:00;;;;;;;14.37;9.03;;;;;;;;;;5108677;28;20264;-80
2023/07/05 07:17:25;;;;;;;18.77;9.57;;;;;;;;;;5100320;28;20283;-78
2023/07/05 07:19:50;;;;;;;23.40;9.73;;;;;;;;;;5101873;28;20024;-83
2023/07/05 07:22:16;;;;;;;18.15;9.75;;;;;;;;;;5099223;28;20256;-78
2023/07/05 07:24:42;;;;;;;18.17;10.25;;;;;;;;;;5103877;28;20024;-78
2023/07/05 07:27:08;;;;;;;13.55;9.07;;;;;;;;;;5106353;28;20024;-79
2023/07/05 07:29:34;;;;;;;14.43;7.82;;;;;;;;;;5106990;28;20050;-79
2023/07/05 07:32:00;;;;;;;13.43;7.88;;;;;;;;;;5105195;28;20092;-78
2023/07/05 07:34:25;;;;;;;14.95;8.52;;;;;;;;;;5105161;28;20031;-78
2023/07/05 07:36:50;;;;;;;11.77;6.10;;;;;;;;;;5103251;28;20024;-78
2023/07/05 07:39:15;;;;;;;10.53;6.37;;;;;;;;;;5102393;28;20280;-77
2023/07/05 07:41:41;;;;;;;19.80;7.23;;;;;;;;;;5095244;28;20265;-77
2023/07/05 07:44:10;;;;;;;27.30;5.35;;;;;;;;;;5100864;28;20341;-79
2023/07/05 07:46:36;;;;;;;259.20;24.30;;;;;;;;;;5095825;28;20474;-79
2023/07/05 07:49:03;;;;;;;20.88;5.10;;;;;;;;;;5099681;28;20016;-78
2023/07/05 07:51:31;;;;;;;23.52;5.18;;;;;;;;;;5097549;28;20111;-78
2023/07/05 07:53:57;;;;;;;12.10;4.30;;;;;;;;;;5097474;28;20038;-78
2023/07/05 07:56:24;;;;;;;28.85;7.13;;;;;;;;;;5099037;28;20122;-79
2023/07/05 07:58:52;;;;;;;20.30;6.20;;;;;;;;;;5098036;28;20020;-79
2023/07/05 08:01:19;;;;;;;9.35;4.55;;;;;;;;;;5098125;28;20620;-76
2023/07/05 08:03:44;;;;;;;7.88;4.10;;;;;;;;;;5091784;28;20028;-76
2023/07/05 08:06:10;;;;;;;9.77;4.15;;;;;;;;;;5093048;28;20042;-76
2023/07/05 08:08:37;;;;;;;9.25;4.10;;;;;;;;;;5093008;28;20039;-76
2023/07/05 08:11:03;;;;;;;7.00;3.92;;;;;;;;;;5091828;28;20495;-76
2023/07/05 08:13:30;;;;;;;8.90;4.10;;;;;;;;;;5093670;28;20032;-76
2023/07/05 08:15:56;;;;;;;6.72;4.07;;;;;;;;;;5093235;28;20106;-76
2023/07/05 08:18:21;;;;;;;8.25;4.45;;;;;;;;;;5094780;28;20059;-76
2023/07/05 08:20:46;;;;;;;8.30;4.20;;;;;;;;;;5092326;28;20027;-77
2023/07/05 08:23:11;;;;;;;6.87;3.70;;;;;;;;;;5094094;28;20024;-76
2023/07/05 08:25:39;;;;;;;8.33;3.83;;;;;;;;;;5093684;28;20023;-76
2023/07/05 08:28:05;;;;;;;7.10;3.80;;;;;;;;;;5091879;28;20063;-76
2023/07/05 08:30:31;;;;;;;5.38;3.45;;;;;;;;;;5091063;28;20479;-77
2023/07/05 08:32:57;;;;;;;6.40;4.18;;;;;;;;;;5096410;28;20046;-77
2023/07/05 08:35:22;;;;;;;6.32;3.78;;;;;;;;;;5096904;28;20024;-76
2023/07/05 08:37:48;;;;;;;6.47;3.33;;;;;;;;;;5096576;28;20031;-76
2023/07/05 08:40:15;;;;;;;6.65;3.58;;;;;;;;;;5096300;28;20044;-77
2023/07/05 08:42:55;;;;;;;5.00;3.38;;;;;;;;;;5097268;28;20027;-76
2023/07/05 08:45:26;;;;;;;7.82;3.92;;;;;;;;;;5096194;28;20035;-77
2023/07/05 08:47:55;;;;;;;7.28;3.58;;;;;;;;;;5095031;28;20425;-75
2023/07/05 08:50:34;;;;;;;6.07;3.53;;;;;;;;;;5094625;28;20384;-77
2023/07/05 08:53:15;;;;;;;6.80;3.45;;;;;;;;;;5095927;28;20026;-75
2023/07/05 08:55:58;;;;;;;5.45;3.30;;;;;;;;;;5094561;28;20462;-76
2023/07/05 08:58:28;;;;;;;23.48;5.63;;;;;;;;;;5097737;28;20016;-78
2023/07/05 09:00:59;;;;;;;24.38;4.53;;;;;;;;;;5100153;28;20028;-80
2023/07/05 09:03:28;;;;;;;27.90;4.75;;;;;;;;;;5100298;28;20028;-78
2023/07/05 09:06:16;;;;;;;6.05;3.25;;;;;;;;;;5097116;28;20024;-77
2023/07/05 09:09:01;;;;;;;64.18;7.95;;;;;;;;;;5100083;28;20517;-78
2023/07/05 09:11:35;;;;;;;6.57;3.33;;;;;;;;;;5097760;28;20028;-78
2023/07/05 09:14:26;;;;;;;8.20;3.10;;;;;;;;;;5100245;28;20035;-77
2023/07/05 09:17:02;;;;;;;12.82;3.70;;;;;;;;;;5098770;28;20042;-78
2023/07/05 09:19:54;;;;;;;5.75;3.40;;;;;;;;;;5098385;28;20020;-78
2023/07/05 09:22:23;;;;;;;24.77;4.70;;;;;;;;;;5099037;28;20035;-78
2023/07/05 09:24:49;;;;;;;9.88;3.72;;;;;;;;;;5099162;28;20047;-78
2023/07/05 09:27:19;;;;;;;8.38;3.88;;;;;;;;;;5097322;28;20056;-77
2023/07/05 09:29:54;;;;;;;10.65;3.33;;;;;;;;;;5098380;28;20028;-78
2023/07/05 09:32:28;;;;;;;6.32;3.25;;;;;;;;;;5096760;28;20087;-78
2023/07/05 09:34:55;;;;;;;;;;;;;;;;;;5099667;28;20490;-78
2023/07/05 09:37:27;;;;;;;12.82;3.65;;;;;;;;;;5098785;28;19914;-78
2023/07/05 09:40:23;;;;;;;10.10;3.70;;;;;;;;;;5098980;28;20034;-78
2023/07/05 09:43:04;;;;;;;7.18;3.45;;;;;;;;;;5085620;28;20116;-77
2023/07/05 09:45:30;;;;;;;6.60;3.50;;;;;;;;;;5098646;28;20024;-78
2023/07/05 09:48:00;;;;;;;5.28;3.22;;;;;;;;;;5096277;28;20372;-77
2023/07/05 09:50:26;;;;;;;5.78;3.08;;;;;;;;;;5096095;28;20395;-78
2023/07/05 09:53:01;;;;;;;5.47;3.35;;;;;;;;;;5096645;28;20077;-80
2023/07/05 09:55:26;;;;;;;5.97;3.20;;;;;;;;;;5094834;28;20035;-77
2023/07/05 09:57:52;;;;;;;5.95;3.60;;;;;;;;;;5095802;28;20030;-78
2023/07/05 10:00:31;;;;;;;10.18;3.60;;;;;;;;;;5095593;28;20020;-78
2023/07/05 10:03:03;;;;;;;11.07;3.55;;;;;;;;;;5095946;28;20102;-77
2023/07/05 10:05:30;;;;;;;6.60;4.37;;;;;;;;;;5096052;28;20090;-78
2023/07/05 10:07:59;;;;;;;7.80;4.35;;;;;;;;;;5097705;28;20408;-78
2023/07/05 10:10:27;;;;;;;14.10;5.07;;;;;;;;;;5097094;28;20076;-77
2023/07/05 10:13:02;;;;;;;34.92;7.22;;;;;;;;;;5096935;28;20068;-77
2023/07/05 10:15:27;;;;;;;23.27;5.38;;;;;;;;;;5095345;28;20103;-78
2023/07/05 10:17:55;;;;;;;7.47;3.60;;;;;;;;;;5094221;28;20073;-77
2023/07/05 10:20:37;;;;;;;26.33;5.85;;;;;;;;;;5095799;28;20628;-78
2023/07/05 10:23:16;;;;;;;17.25;3.67;;;;;;;;;;5097850;28;20028;-81
2023/07/05 10:25:41;;;;;;;14.25;3.42;;;;;;;;;;5097128;28;20494;-77
2023/07/05 10:28:12;;;;;;;32.28;4.55;;;;;;;;;;5096244;28;20039;-77
2023/07/05 10:30:55;;;;;;;20.52;4.80;;;;;;;;;;5097218;28;20016;-79
2023/07/05 10:33:27;;;;;;;5.93;3.38;;;;;;;;;;5096384;28;20062;-78
2023/07/05 10:35:56;;;;;;;6.30;2.90;;;;;;;;;;5096974;28;20479;-78
2023/07/05 10:38:28;;;;;;;8.30;3.20;;;;;;;;;;5096563;28;20027;-78
2023/07/05 10:41:00;;;;;;;7.40;2.78;;;;;;;;;;5095429;28;20115;-78
2023/07/05 10:43:29;;;;;;;6.45;2.83;;;;;;;;;;5095086;28;20020;-77
2023/07/05 10:45:55;;;;;;;5.25;2.97;;;;;;;;;;5096956;28;20461;-79
2023/07/05 10:48:30;;;;;;;3.83;2.83;;;;;;;;;;5095718;28;20024;-78
2023/07/05 10:50:56;;;;;;;5.60;2.78;;;;;;;;;;5097350;28;20035;-78
2023/07/05 10:53:25;;;;;;;5.72;2.65;;;;;;;;;;5095720;28;20032;-81
2023/07/05 10:56:13;;;;;;;3.83;2.33;;;;;;;;;;5095207;28;20062;-84
2023/07/05 10:58:53;;;;;;;3.17;1.98;;;;;;;;;;5095261;28;20471;-77
2023/07/05 11:01:23;;;;;;;2.50;1.70;;;;;;;;;;5096876;28;20032;-78
2023/07/05 11:03:57;;;;;;;2.22;1.50;;;;;;;;;;5095308;28;20122;-79
2023/07/05 11:06:24;;;;;;;2.47;1.70;;;;;;;;;;5094377;28;20099;-77
2023/07/05 11:08:49;;;;;;;5.55;1.75;;;;;;;;;;5093138;28;20027;-76
2023/07/05 11:11:26;;;;;;;2.03;1.58;;;;;;;;;;5093213;28;20447;-76
2023/07/05 11:13:53;;;;;;;4.00;1.85;;;;;;;;;;5092140;28;20421;-75
2023/07/05 11:16:21;;;;;;;3.33;1.52;;;;;;;;;;5093826;28;20028;-76
2023/07/05 11:18:47;;;;;;;2.60;1.73;;;;;;;;;;5093312;28;20093;-76
2023/07/05 11:21:39;;;;;;;3.90;1.70;;;;;;;;;;5093284;28;20031;-76
2023/07/05 11:24:06;;;;;;;3.80;1.67;;;;;;;;;;5093257;28;20402;-76
2023/07/05 11:26:34;;;;;;;4.93;2.28;;;;;;;;;;5093048;28;20100;-75
2023/07/05 11:29:00;;;;;;;2.10;1.50;;;;;;;;;;5092910;28;20028;-76
2023/07/05 11:31:28;;;;;;;2.97;1.90;;;;;;;;;;5093044;28;20078;-76
2023/07/05 11:34:25;;;;;;;2.55;1.90;;;;;;;;;;5092967;28;20479;-76
2023/07/05 11:37:14;;;;;;;2.83;2.10;;;;;;;;;;5091664;28;20077;-76
2023/07/05 11:39:41;;;;;;;5.30;2.05;;;;;;;;;;5092681;28;20032;-75
2023/07/05 11:42:26;;;;;;;10.32;1.95;;;;;;;;;;5092925;28;20031;-77
2023/07/05 11:45:03;;;;;;;3.75;1.60;;;;;;;;;;5093267;28;20455;-76
2023/07/05 11:47:32;;;;;;;4.32;1.55;;;;;;;;;;5092812;28;20032;-76
2023/07/05 11:50:07;;;;;;;3.63;1.70;;;;;;;;;;5092801;28;20475;-76
2023/07/05 11:52:37;;;;;;;2.03;1.38;;;;;;;;;;5091485;28;20050;-76
2023/07/05 11:55:34;;;;;;;4.35;1.60;;;;;;;;;;5092672;28;20024;-76
2023/07/05 11:58:12;;;;;;;40.42;6.93;;;;;;;;;;5093109;28;20043;-76
2023/07/05 12:00:42;;;;;;;81.60;11.23;;;;;;;;;;5091264;28;20111;-76
2023/07/05 12:03:22;;;;;;;22.70;5.00;;;;;;;;;;5092764;28;20567;-76
2023/07/05 12:06:15;;;;;;;6.68;2.30;;;;;;;;;;5095398;28;20075;-76
2023/07/05 12:08:54;;;;;;;15.45;3.20;;;;;;;;;;5094503;28;20410;-76
2023/07/05 12:11:37;;;;;;;6.15;1.52;;;;;;;;;;5096357;28;20403;-77
2023/07/05 12:14:21;;;;;;;5.70;2.13;;;;;;;;;;5096502;28;20024;-76
2023/07/05 12:16:46;;;;;;;2.90;1.70;;;;;;;;;;5095949;28;20399;-78
2023/07/05 12:19:18;;;;;;;6.30;2.10;;;;;;;;;;5094301;28;20030;-76
2023/07/05 12:21:52;;;;;;;6.18;1.85;;;;;;;;;;5096071;28;20024;-76
2023/07/05 12:24:17;;;;;;;5.93;1.70;;;;;;;;;;5097395;28;20024;-76
2023/07/05 12:26:43;;;;;;;4.88;1.65;;;;;;;;;;5094991;28;20069;-76
2023/07/05 12:29:23;;;;;;;3.70;1.70;;;;;;;;;;5098974;28;20160;-76
2023/07/05 12:32:01;;;;;;;4.70;1.63;;;;;;;;;;5099305;28;20030;-82
2023/07/05 12:34:27;;;;;;;3.45;1.52;;;;;;;;;;5099916;28;20024;-77
2023/07/05 12:36:52;;;;;;;7.67;1.57;;;;;;;;;;5098284;28;20031;-77
2023/07/05 12:39:18;;;;;;;4.63;1.30;;;;;;;;;;5096465;28;20285;-76
2023/07/05 12:41:56;;;;;;;8.05;1.42;;;;;;;;;;5096590;28;20475;-77
2023/07/05 12:44:23;;;;;;;6.45;1.50;;;;;;;;;;5097141;28;20035;-77
2023/07/05 12:46:48;;;;;;;4.55;1.25;;;;;;;;;;5094698;28;20024;-76
2023/07/05 12:49:26;;;;;;;6.25;1.30;;;;;;;;;;5095818;28;20034;-77
2023/07/05 12:51:58;;;;;;;7.60;1.50;;;;;;;;;;5097344;28;20027;-78
2023/07/05 12:54:24;;;;;;;4.88;1.60;;;;;;;;;;5098345;28;20020;-79
2023/07/05 12:56:53;;;;;;;6.15;1.30;;;;;;;;;;5099553;28;20114;-80
2023/07/05 12:59:28;;;;;;;3.80;1.45;;;;;;;;;;5098853;28;20071;-78
2023/07/05 13:01:53;;;;;;;1.50;1.30;;;;;;;;;;5096644;28;20023;-77
2023/07/05 13:04:20;;;;;;;3.60;1.48;;;;;;;;;;5095849;28;20063;-76
2023/07/05 13:06:53;;;;;;;2.22;1.23;;;;;;;;;;5095848;28;20050;-75
2023/07/05 13:09:30;;;;;;;3.10;1.23;;;;;;;;;;5096135;28;20027;-76
2023/07/05 13:12:01;;;;;;;2.38;1.30;;;;;;;;;;5095236;28;20074;-76
2023/07/05 13:14:29;;;;;;;2.17;1.30;;;;;;;;;;5094719;28;20055;-75
2023/07/05 13:16:57;;;;;;;2.72;1.40;;;;;;;;;;5094673;28;20115;-75
2023/07/05 13:20:07;;;;;;;4.68;1.45;;;;;;;;;;5095462;28;20039;-76
2023/07/05 13:22:38;;;;;;;2.25;1.23;;;;;;;;;;5087366;28;20036;-75
2023/07/05 13:25:05;;;;;;;2.58;1.38;;;;;;;;;;5097566;28;20378;-79
2023/07/05 13:27:35;;;;;;;4.28;1.48;;;;;;;;;;5100469;28;20051;-79
2023/07/05 13:30:13;;;;;;;5.97;1.30;;;;;;;;;;5100980;28;20027;-75
2023/07/05 13:32:40;;;;;;;2.78;1.52;;;;;;;;;;5095888;28;20035;-76
2023/07/05 13:35:05;;;;;;;6.40;1.60;;;;;;;;;;5096269;28;20107;-77
2023/07/05 13:37:31;;;;;;;7.88;1.88;;;;;;;;;;5094258;28;20051;-75
2023/07/05 13:40:07;;;;;;;1.40;1.20;;;;;;;;;;5094799;28;20419;-74
2023/07/05 13:42:33;;;;;;;2.83;1.25;;;;;;;;;;5094808;28;20249;-73
2023/07/05 13:44:59;;;;;;;4.28;1.30;;;;;;;;;;5094636;28;20032;-73
2023/07/05 13:47:24;;;;;;;2.67;1.23;;;;;;;;;;5094578;28;20051;-73
2023/07/05 13:49:49;;;;;;;2.50;1.10;;;;;;;;;;5094580;28;20020;-74
2023/07/05 13:52:18;;;;;;;4.55;1.25;;;;;;;;;;5093807;28;20260;-77
2023/07/05 13:54:45;;;;;;;4.65;1.50;;;;;;;;;;5094746;28;20022;-76
2023/07/05 13:57:15;;;;;;;5.20;1.42;;;;;;;;;;5094839;28;20028;-76
2023/07/05 13:59:40;;;;;;;2.20;1.10;;;;;;;;;;5094381;28;20028;-76
2023/07/05 14:02:32;;;;;;;2.13;1.25;;;;;;;;;;5094618;28;20032;-76
2023/07/05 14:05:03;;;;;;;2.35;1.20;;;;;;;;;;5094413;28;20028;-76
2023/07/05 14:07:29;;;;;;;2.25;1.40;;;;;;;;;;5095863;28;20026;-76
2023/07/05 14:09:54;;;;;;;1.42;1.05;;;;;;;;;;5094138;28;20390;-77
2023/07/05 14:12:22;;;;;;;2.53;1.17;;;;;;;;;;5094283;28;20356;-76
2023/07/05 14:14:47;;;;;;;4.38;1.50;;;;;;;;;;5092991;28;20293;-76
2023/07/05 14:17:14;;;;;;;1.55;1.30;;;;;;;;;;5092773;28;20550;-75
2023/07/05 14:19:41;;;;;;;2.58;1.42;;;;;;;;;;5092733;28;20071;-77
2023/07/05 14:22:11;;;;;;;6.80;1.50;;;;;;;;;;5094550;28;20114;-77
2023/07/05 14:24:37;;;;;;;2.38;1.20;;;;;;;;;;5094312;28;20024;-75
2023/07/05 14:27:02;;;;;;;3.80;1.80;;;;;;;;;;5094256;28;20035;-75
2023/07/05 14:29:28;;;;;;;7.07;2.58;;;;;;;;;;5092721;28;20024;-75
2023/07/05 14:31:53;;;;;;;6.15;1.73;;;;;;;;;;5092555;28;20043;-75
2023/07/05 14:34:19;;;;;;;4.87;1.80;;;;;;;;;;5092627;28;20467;-76
2023/07/05 14:36:44;;;;;;;5.23;2.23;;;;;;;;;;5093690;28;20505;-76
2023/07/05 14:39:09;;;;;;;4.97;1.63;;;;;;;;;;5093784;28;20534;-75
2023/07/05 14:41:34;;;;;;;7.97;2.37;;;;;;;;;;5093942;28;20329;-76
2023/07/05 14:44:00;;;;;;;3.95;1.90;;;;;;;;;;5093652;28;20032;-76